createdAt,value
2023-03-16T00:02:18.855Z,75.92
2023-03-16T00:04:48.582Z,75.81
2023-03-16T00:07:16.842Z,75.89
2023-03-16T00:09:44.881Z,75.83
2023-03-16T00:12:18.608Z,75.92
2023-03-16T00:14:49.148Z,76.01
2023-03-16T00:17:19.594Z,75.97
2023-03-16T00:19:55.436Z,76.09
2023-03-16T00:22:29.078Z,76.22
2023-03-16T00:24:57.572Z,76.14
2023-03-16T00:27:26.565Z,75.93
2023-03-16T00:29:56.156Z,75.89
2023-03-16T00:32:27.573Z,75.68
2023-03-16T00:34:55.981Z,75.52
2023-03-16T00:37:26.044Z,75.89
2023-03-16T00:39:58.282Z,75.92
2023-03-16T00:42:28.701Z,75.98
2023-03-16T00:45:01.881Z,75.98
2023-03-16T00:47:33.037Z,75.95
2023-03-16T00:50:02.405Z,75.89
2023-03-16T00:52:30.822Z,75.81
2023-03-16T00:54:59.325Z,75.72
2023-03-16T00:57:30.452Z,75.51
2023-03-16T00:59:59.735Z,75.55
2023-03-16T01:02:28.226Z,75.60
2023-03-16T01:04:56.387Z,75.69
2023-03-16T01:07:26.924Z,75.88
2023-03-16T01:09:54.886Z,75.77
2023-03-16T01:12:22.952Z,75.81
2023-03-16T01:14:51.020Z,76.00
2023-03-16T01:17:19.095Z,76.22
2023-03-16T01:19:47.063Z,76.02
2023-03-16T01:22:16.397Z,75.91
2023-03-16T01:24:45.821Z,75.77
2023-03-16T01:27:14.863Z,75.68
2023-03-16T01:29:43.950Z,75.84
2023-03-16T01:32:13.039Z,75.75
2023-03-16T01:34:41.833Z,75.81
2023-03-16T01:37:11.653Z,75.65
2023-03-16T01:39:53.023Z,75.67
2023-03-16T01:42:21.379Z,75.54
2023-03-16T01:45:01.858Z,75.73
2023-03-16T01:47:39.742Z,75.66
2023-03-16T01:50:13.772Z,75.69
2023-03-16T01:52:43.403Z,75.97
2023-03-16T01:55:15.860Z,76.04
2023-03-16T01:57:47.176Z,76.15
2023-03-16T02:00:23.976Z,76.35
2023-03-16T02:03:08.030Z,76.40
2023-03-16T02:05:53.031Z,76.61
2023-03-16T02:08:23.156Z,76.67
2023-03-16T02:10:54.893Z,76.62
2023-03-16T02:13:25.737Z,76.65
2023-03-16T02:15:55.237Z,76.45
2023-03-16T02:18:23.444Z,76.48
2023-03-16T02:21:13.051Z,76.58
2023-03-16T02:23:43.692Z,77.01
2023-03-16T02:26:29.062Z,76.98
2023-03-16T02:29:11.627Z,76.85
2023-03-16T02:31:40.258Z,77.13
2023-03-16T02:34:09.856Z,77.33
2023-03-16T02:36:42.026Z,77.42
2023-03-16T02:39:10.196Z,77.14
2023-03-16T02:41:46.187Z,77.18
2023-03-16T02:44:24.429Z,77.12
2023-03-16T02:46:58.503Z,77.04
2023-03-16T02:49:28.285Z,76.85
2023-03-16T02:51:57.787Z,76.78
2023-03-16T02:54:26.057Z,76.62
2023-03-16T02:56:54.347Z,76.90
2023-03-16T02:59:22.819Z,77.10
2023-03-16T03:01:51.707Z,77.03
2023-03-16T03:04:20.569Z,76.95
2023-03-16T03:06:50.817Z,76.99
2023-03-16T03:09:19.821Z,77.09
2023-03-16T03:11:48.599Z,76.87
2023-03-16T03:14:17.025Z,76.66
2023-03-16T03:16:47.055Z,76.65
2023-03-16T03:19:15.421Z,76.72
2023-03-16T03:21:43.740Z,76.68
2023-03-16T03:24:11.814Z,76.69
2023-03-16T03:26:39.898Z,76.66
2023-03-16T03:29:11.339Z,77.11
2023-03-16T03:31:39.957Z,77.07
2023-03-16T03:34:08.400Z,76.91
2023-03-16T03:36:36.976Z,76.92
2023-03-16T03:39:06.460Z,76.84
2023-03-16T03:41:35.067Z,76.75
2023-03-16T03:44:05.474Z,76.62
2023-03-16T03:46:34.864Z,76.56
2023-03-16T03:49:05.454Z,76.80
2023-03-16T03:51:35.391Z,76.96
2023-03-16T03:54:07.979Z,76.86
2023-03-16T03:56:49.289Z,76.82
2023-03-16T03:59:18.588Z,76.88
2023-03-16T04:02:12.494Z,76.90
2023-03-16T04:04:44.958Z,76.73
2023-03-16T04:07:14.029Z,76.80
2023-03-16T04:09:42.936Z,76.77
2023-03-16T04:12:17.145Z,76.96
2023-03-16T04:14:45.427Z,77.15
2023-03-16T04:17:13.689Z,77.02
2023-03-16T04:19:42.372Z,77.25
2023-03-16T04:22:13.610Z,77.17
2023-03-16T04:24:43.339Z,77.20
2023-03-16T04:27:12.290Z,77.29
2023-03-16T04:29:40.689Z,77.33
2023-03-16T04:32:09.172Z,77.09
2023-03-16T04:34:38.676Z,77.07
2023-03-16T04:37:06.952Z,76.82
2023-03-16T04:39:36.052Z,76.87
2023-03-16T04:42:04.221Z,76.89
2023-03-16T04:44:32.400Z,76.80
2023-03-16T04:47:00.763Z,77.00
2023-03-16T04:49:34.767Z,76.96
2023-03-16T04:52:02.822Z,76.89
2023-03-16T04:54:32.124Z,76.94
2023-03-16T04:57:01.076Z,76.88
2023-03-16T04:59:36.502Z,76.58
2023-03-16T05:02:21.040Z,76.50
2023-03-16T05:04:49.723Z,76.76
2023-03-16T05:07:19.345Z,76.83
2023-03-16T05:09:50.678Z,76.91
2023-03-16T05:12:19.368Z,77.07
2023-03-16T05:14:47.946Z,77.13
2023-03-16T05:17:42.644Z,76.91
2023-03-16T05:20:15.951Z,77.51
2023-03-16T05:22:48.513Z,77.61
2023-03-16T05:25:21.410Z,77.61
2023-03-16T05:27:54.491Z,77.87
2023-03-16T05:30:31.472Z,77.76
2023-03-16T05:33:01.440Z,77.38
2023-03-16T05:35:29.741Z,76.21
2023-03-16T05:38:01.102Z,75.61
2023-03-16T05:40:29.817Z,75.76
2023-03-16T05:43:09.428Z,75.52
2023-03-16T05:45:41.307Z,75.38
2023-03-16T05:48:13.236Z,75.57
2023-03-16T05:50:45.313Z,75.92
2023-03-16T05:53:15.406Z,75.91
2023-03-16T05:55:43.777Z,75.70
2023-03-16T05:58:13.509Z,75.62
2023-03-16T06:00:42.302Z,75.86
2023-03-16T06:03:18.518Z,76.02
2023-03-16T06:05:47.717Z,75.79
2023-03-16T06:08:16.471Z,75.55
2023-03-16T06:10:49.638Z,75.61
2023-03-16T06:13:18.350Z,75.32
2023-03-16T06:15:46.597Z,75.25
2023-03-16T06:18:14.869Z,75.32
2023-03-16T06:20:43.862Z,75.41
2023-03-16T06:23:12.653Z,75.37
2023-03-16T06:25:41.174Z,75.33
2023-03-16T06:28:09.615Z,75.63
2023-03-16T06:30:38.500Z,75.71
2023-03-16T06:33:07.038Z,75.30
2023-03-16T06:35:35.389Z,75.44
2023-03-16T06:38:12.641Z,75.19
2023-03-16T06:40:55.871Z,75.30
2023-03-16T06:43:24.397Z,75.21
2023-03-16T06:45:52.837Z,75.33
2023-03-16T06:48:21.312Z,75.31
2023-03-16T06:50:49.487Z,75.67
2023-03-16T06:53:22.403Z,75.50
2023-03-16T06:55:51.527Z,75.29
2023-03-16T06:58:20.042Z,75.45
2023-03-16T07:00:48.144Z,75.10
2023-03-16T07:03:16.211Z,75.29
2023-03-16T07:05:48.671Z,75.09
2023-03-16T07:08:17.033Z,75.29
2023-03-16T07:10:45.200Z,74.81
2023-03-16T07:13:14.055Z,74.52
2023-03-16T07:15:42.775Z,74.65
2023-03-16T07:18:12.632Z,74.81
2023-03-16T07:20:40.760Z,74.84
2023-03-16T07:23:09.034Z,74.69
2023-03-16T07:25:37.421Z,74.54
2023-03-16T07:28:06.043Z,74.59
2023-03-16T07:30:38.980Z,74.49
2023-03-16T07:33:07.677Z,74.57
2023-03-16T07:35:36.489Z,74.71
2023-03-16T07:38:05.009Z,74.18
2023-03-16T07:40:34.882Z,74.33
2023-03-16T07:43:08.344Z,74.30
2023-03-16T07:45:40.666Z,74.15
2023-03-16T07:48:09.093Z,73.66
2023-03-16T07:50:50.193Z,73.47
2023-03-16T07:53:18.652Z,73.70
2023-03-16T07:55:50.605Z,73.95
2023-03-16T07:58:19.196Z,73.84
2023-03-16T08:00:47.979Z,73.41
2023-03-16T08:03:16.384Z,73.71
2023-03-16T08:05:44.984Z,73.67
2023-03-16T08:08:16.181Z,73.78
2023-03-16T08:10:44.637Z,73.39
2023-03-16T08:13:16.432Z,73.59
2023-03-16T08:16:02.227Z,74.42
2023-03-16T08:18:38.883Z,74.29
2023-03-16T08:21:07.149Z,73.30
2023-03-16T08:23:36.312Z,73.29
2023-03-16T08:26:09.132Z,72.29
2023-03-16T08:28:37.653Z,71.86
2023-03-16T08:31:09.392Z,70.59
2023-03-16T08:33:52.805Z,70.32
2023-03-16T08:36:23.967Z,69.65
2023-03-16T08:39:06.064Z,69.92
2023-03-16T08:41:38.012Z,70.40
2023-03-16T08:44:09.782Z,69.64
2023-03-16T08:46:38.258Z,69.35
2023-03-16T08:49:07.137Z,69.58
2023-03-16T08:51:35.402Z,69.69
2023-03-16T08:54:03.571Z,69.98
2023-03-16T08:56:32.776Z,69.76
2023-03-16T08:59:01.046Z,69.58
2023-03-16T09:01:29.869Z,68.64
2023-03-16T09:03:58.613Z,68.66
2023-03-16T09:06:26.996Z,68.16
2023-03-16T09:08:56.278Z,68.58
2023-03-16T09:11:28.668Z,68.82
2023-03-16T09:13:56.941Z,68.51
2023-03-16T09:16:25.882Z,68.32
2023-03-16T09:18:56.060Z,68.35
2023-03-16T09:21:24.169Z,67.79
2023-03-16T09:23:52.312Z,67.55
2023-03-16T09:26:20.901Z,67.77
2023-03-16T09:28:49.532Z,68.07
2023-03-16T09:31:20.054Z,67.70
2023-03-16T09:33:48.778Z,67.64
2023-03-16T09:36:17.753Z,68.09
2023-03-16T09:38:45.948Z,68.25
2023-03-16T09:41:45.544Z,67.94
2023-03-16T09:44:47.017Z,68.03
2023-03-16T09:47:17.224Z,67.98
2023-03-16T09:49:48.597Z,67.96
2023-03-16T09:52:30.443Z,68.01
2023-03-16T09:55:31.869Z,67.78
2023-03-16T09:58:01.141Z,67.26
2023-03-16T10:00:34.347Z,67.54
2023-03-16T10:03:17.761Z,67.41
2023-03-16T10:05:49.913Z,66.52
2023-03-16T10:08:31.025Z,65.67
2023-03-16T10:11:11.474Z,65.38
2023-03-16T10:13:48.622Z,65.60
2023-03-16T10:16:21.340Z,65.35
2023-03-16T10:19:08.951Z,65.27
2023-03-16T10:21:40.618Z,64.59
2023-03-16T10:24:27.374Z,64.20
2023-03-16T10:27:01.355Z,64.37
2023-03-16T10:29:35.093Z,64.60
2023-03-16T10:32:14.269Z,64.82
2023-03-16T10:34:48.813Z,65.01
2023-03-16T10:37:16.798Z,65.21
2023-03-16T10:39:44.678Z,64.97
2023-03-16T10:42:18.194Z,64.75
2023-03-16T10:44:47.544Z,64.76
2023-03-16T10:47:34.003Z,65.18
2023-03-16T10:50:16.816Z,65.40
2023-03-16T10:52:48.253Z,65.78
2023-03-16T10:55:21.305Z,65.94
2023-03-16T10:57:53.698Z,65.97
2023-03-16T11:00:26.408Z,65.71
2023-03-16T11:02:56.802Z,65.71
2023-03-16T11:05:27.013Z,65.05
2023-03-16T11:08:22.129Z,64.68
2023-03-16T11:11:12.028Z,64.06
2023-03-16T11:13:45.040Z,63.70
2023-03-16T11:16:31.381Z,63.78
2023-03-16T11:19:29.386Z,63.92
2023-03-16T11:22:03.122Z,64.31
2023-03-16T11:24:45.647Z,64.06
2023-03-16T11:27:43.773Z,64.42
2023-03-16T11:30:29.401Z,64.44
2023-03-16T11:33:00.345Z,64.76
2023-03-16T11:35:58.655Z,64.63
2023-03-16T11:39:02.294Z,64.78
2023-03-16T11:41:45.811Z,64.63
2023-03-16T11:44:33.043Z,64.36
2023-03-16T11:47:43.219Z,64.43
2023-03-16T11:50:20.133Z,64.56
2023-03-16T11:53:02.570Z,64.86
2023-03-16T11:55:46.742Z,64.08
2023-03-16T11:58:31.791Z,64.08
2023-03-16T12:01:21.058Z,63.18
2023-03-16T12:04:34.413Z,63.41
2023-03-16T12:07:21.948Z,63.24
2023-03-16T12:09:59.117Z,63.43
2023-03-16T12:12:50.607Z,63.34
2023-03-16T12:15:36.945Z,63.13
2023-03-16T12:18:23.519Z,62.59
2023-03-16T12:21:12.300Z,62.52
2023-03-16T12:23:52.559Z,62.54
2023-03-16T12:26:23.656Z,62.34
2023-03-16T12:28:54.403Z,62.47
2023-03-16T12:31:47.712Z,62.46
2023-03-16T12:34:30.067Z,62.55
2023-03-16T12:37:02.857Z,61.97
2023-03-16T12:40:09.171Z,61.97
2023-03-16T12:42:49.683Z,62.35
2023-03-16T12:45:27.605Z,62.42
2023-03-16T12:48:11.033Z,61.72
2023-03-16T12:50:54.852Z,61.94
2023-03-16T12:53:41.049Z,61.70
2023-03-16T12:56:21.525Z,61.78
2023-03-16T12:58:50.878Z,61.50
2023-03-16T13:01:25.772Z,61.44
2023-03-16T13:04:02.231Z,61.43
2023-03-16T13:06:36.470Z,60.37
2023-03-16T13:09:07.501Z,59.37
2023-03-16T13:11:47.540Z,59.30
2023-03-16T13:14:40.770Z,59.69
2023-03-16T13:17:17.764Z,59.39
2023-03-16T13:19:59.584Z,58.95
2023-03-16T13:22:32.557Z,59.04
2023-03-16T13:25:15.758Z,59.56
2023-03-16T13:27:50.121Z,60.17
2023-03-16T13:30:22.479Z,60.14
2023-03-16T13:33:01.899Z,58.57
2023-03-16T13:35:32.052Z,58.06
2023-03-16T13:38:08.145Z,58.28
2023-03-16T13:40:46.617Z,59.13
2023-03-16T13:43:21.902Z,59.80
2023-03-16T13:45:50.067Z,59.46
2023-03-16T13:48:18.462Z,59.76
2023-03-16T13:50:52.791Z,59.97
2023-03-16T13:53:42.607Z,60.54
2023-03-16T13:56:21.444Z,60.38
2023-03-16T13:58:52.204Z,60.36
2023-03-16T14:01:26.570Z,61.01
2023-03-16T14:03:58.424Z,61.77
2023-03-16T14:06:29.628Z,61.99
2023-03-16T14:09:04.660Z,62.16
2023-03-16T14:11:33.248Z,62.87
2023-03-16T14:14:02.178Z,63.43
2023-03-16T14:16:32.131Z,63.26
2023-03-16T14:19:08.168Z,63.18
2023-03-16T14:21:36.107Z,63.11
2023-03-16T14:24:17.719Z,63.43
2023-03-16T14:26:47.681Z,63.45
2023-03-16T14:29:22.061Z,63.49
2023-03-16T14:31:49.856Z,63.84
2023-03-16T14:34:27.065Z,64.27
2023-03-16T14:37:12.587Z,64.50
2023-03-16T14:39:40.816Z,64.74
2023-03-16T14:42:21.536Z,64.68
2023-03-16T14:44:50.469Z,64.90
2023-03-16T14:47:28.762Z,64.63
2023-03-16T14:49:59.870Z,64.34
2023-03-16T14:52:33.854Z,64.37
2023-03-16T14:55:16.497Z,63.45
2023-03-16T14:57:47.390Z,62.85
2023-03-16T15:00:17.745Z,63.17
2023-03-16T15:02:57.868Z,63.58
2023-03-16T15:05:36.772Z,64.06
2023-03-16T15:08:07.255Z,65.04
2023-03-16T15:10:36.303Z,65.78
2023-03-16T15:13:16.284Z,66.20
2023-03-16T15:15:44.189Z,66.84
2023-03-16T15:18:12.215Z,67.55
2023-03-16T15:20:43.342Z,68.16
2023-03-16T15:23:15.071Z,67.99
2023-03-16T15:25:45.011Z,67.67
2023-03-16T15:28:13.045Z,67.61
2023-03-16T15:30:41.535Z,68.18
2023-03-16T15:33:10.845Z,68.75
2023-03-16T15:35:39.917Z,69.13
2023-03-16T15:38:14.484Z,69.35
2023-03-16T15:40:45.510Z,69.63
2023-03-16T15:43:15.439Z,70.24
2023-03-16T15:45:43.879Z,70.55
2023-03-16T15:48:12.156Z,71.23
2023-03-16T15:50:46.857Z,71.59
2023-03-16T15:53:31.341Z,71.99
2023-03-16T15:56:07.537Z,71.89
2023-03-16T15:58:38.222Z,72.00
2023-03-16T16:01:07.720Z,71.98
2023-03-16T16:03:35.765Z,71.89
2023-03-16T16:06:03.970Z,72.66
2023-03-16T16:08:32.179Z,73.23
2023-03-16T16:11:00.145Z,73.74
2023-03-16T16:13:44.699Z,74.03
2023-03-16T16:16:18.513Z,74.44
2023-03-16T16:18:48.310Z,75.18
2023-03-16T16:21:24.118Z,75.28
2023-03-16T16:23:52.999Z,75.49
2023-03-16T16:26:52.178Z,75.82
2023-03-16T16:29:24.370Z,75.91
2023-03-16T16:31:52.509Z,76.10
2023-03-16T16:34:24.678Z,76.53
2023-03-16T16:36:54.365Z,76.24
2023-03-16T16:39:22.890Z,76.30
2023-03-16T16:41:54.219Z,76.15
2023-03-16T16:44:27.484Z,76.21
2023-03-16T16:46:55.902Z,75.50
2023-03-16T16:49:30.767Z,75.34
2023-03-16T16:51:59.357Z,75.22
2023-03-16T16:54:32.023Z,75.44
2023-03-16T16:57:01.694Z,75.10
2023-03-16T16:59:33.076Z,74.93
2023-03-16T17:02:03.293Z,74.51
2023-03-16T17:04:31.364Z,74.24
2023-03-16T17:07:02.255Z,73.97
2023-03-16T17:09:30.750Z,73.75
2023-03-16T17:12:01.030Z,73.72
2023-03-16T17:14:31.219Z,73.21
2023-03-16T17:17:05.329Z,71.55
2023-03-16T17:19:33.329Z,70.93
2023-03-16T17:22:01.688Z,71.08
2023-03-16T17:24:29.849Z,70.74
2023-03-16T17:27:00.273Z,70.56
2023-03-16T17:29:33.403Z,70.50
2023-03-16T17:32:03.755Z,70.41
2023-03-16T17:34:34.147Z,70.66
2023-03-16T17:37:02.351Z,70.72
2023-03-16T17:39:34.723Z,70.95
2023-03-16T17:42:14.118Z,70.98
2023-03-16T17:44:46.510Z,71.30
2023-03-16T17:47:27.142Z,70.94
2023-03-16T17:49:55.896Z,70.53
2023-03-16T17:52:25.949Z,69.99
2023-03-16T17:54:54.871Z,70.01
2023-03-16T17:57:29.481Z,69.64
2023-03-16T17:59:58.388Z,69.38
2023-03-16T18:02:49.980Z,69.50
2023-03-16T18:05:38.170Z,69.65
2023-03-16T18:08:28.652Z,69.47
2023-03-16T18:11:00.973Z,69.50
2023-03-16T18:13:33.521Z,69.36
2023-03-16T18:16:02.766Z,69.33
2023-03-16T18:18:35.070Z,69.51
2023-03-16T18:21:03.615Z,69.35
2023-03-16T18:23:33.867Z,69.35
2023-03-16T18:26:07.044Z,69.06
2023-03-16T18:28:35.182Z,69.31
2023-03-16T18:31:05.174Z,69.21
2023-03-16T18:33:39.448Z,69.23
2023-03-16T18:36:16.453Z,69.22
2023-03-16T18:38:47.549Z,69.07
2023-03-16T18:41:21.000Z,69.20
2023-03-16T18:43:50.796Z,68.86
2023-03-16T18:46:29.284Z,69.06
2023-03-16T18:49:00.146Z,68.87
2023-03-16T18:51:29.747Z,68.43
2023-03-16T18:53:57.790Z,68.63
2023-03-16T18:56:28.614Z,69.00
2023-03-16T18:58:57.098Z,69.16
2023-03-16T19:01:33.490Z,69.12
2023-03-16T19:04:02.361Z,69.31
2023-03-16T19:06:33.733Z,69.48
2023-03-16T19:09:08.875Z,69.48
2023-03-16T19:11:43.814Z,69.91
2023-03-16T19:14:20.630Z,70.13
2023-03-16T19:16:48.516Z,70.16
2023-03-16T19:19:21.169Z,70.34
2023-03-16T19:21:53.959Z,70.62
2023-03-16T19:24:28.071Z,70.55
2023-03-16T19:26:56.780Z,70.75
2023-03-16T19:29:35.234Z,70.60
2023-03-16T19:32:03.222Z,70.73
2023-03-16T19:34:33.994Z,70.60
2023-03-16T19:37:01.837Z,71.07
2023-03-16T19:39:29.581Z,71.18
2023-03-16T19:41:59.031Z,71.09
2023-03-16T19:44:28.565Z,71.07
2023-03-16T19:46:56.731Z,71.39
2023-03-16T19:49:27.098Z,71.63
2023-03-16T19:51:56.790Z,71.56
2023-03-16T19:54:32.260Z,71.93
2023-03-16T19:57:07.706Z,72.18
2023-03-16T19:59:36.139Z,72.37
2023-03-16T20:02:24.296Z,72.78
2023-03-16T20:04:53.347Z,72.63
2023-03-16T20:07:22.133Z,72.67
2023-03-16T20:09:51.002Z,72.50
2023-03-16T20:12:31.905Z,72.74
2023-03-16T20:14:59.844Z,72.83
2023-03-16T20:17:29.430Z,73.03
2023-03-16T20:19:58.037Z,73.20
2023-03-16T20:22:28.486Z,72.89
2023-03-16T20:24:58.217Z,72.82
2023-03-16T20:27:28.035Z,73.01
2023-03-16T20:29:56.146Z,73.57
2023-03-16T20:32:33.340Z,73.55
2023-03-16T20:35:01.148Z,73.47
2023-03-16T20:37:32.386Z,73.56
2023-03-16T20:40:00.234Z,73.68
2023-03-16T20:42:32.292Z,73.76
2023-03-16T20:45:00.909Z,73.70
2023-03-16T20:47:28.785Z,73.86
2023-03-16T20:50:00.265Z,73.96
2023-03-16T20:52:30.826Z,74.01
2023-03-16T20:54:59.123Z,74.10
2023-03-16T20:57:29.161Z,74.22
2023-03-16T20:59:57.266Z,74.10
2023-03-16T21:02:35.290Z,73.96
2023-03-16T21:05:07.023Z,74.02
2023-03-16T21:07:34.871Z,74.05
2023-03-16T21:10:02.712Z,74.02
2023-03-16T21:12:33.686Z,74.25
2023-03-16T21:15:03.077Z,74.52
2023-03-16T21:17:39.256Z,74.46
2023-03-16T21:20:18.948Z,74.43
2023-03-16T21:22:46.956Z,74.41
2023-03-16T21:25:38.462Z,74.59
2023-03-16T21:28:06.327Z,74.38
2023-03-16T21:30:40.189Z,74.51
2023-03-16T21:33:30.092Z,74.66
2023-03-16T21:35:59.902Z,74.51
2023-03-16T21:38:29.801Z,74.56
2023-03-16T21:40:57.809Z,74.77
2023-03-16T21:43:26.795Z,74.72
2023-03-16T21:45:55.519Z,74.74
2023-03-16T21:48:45.881Z,74.77
2023-03-16T21:51:19.942Z,75.06
2023-03-16T21:53:49.388Z,75.04
2023-03-16T21:56:22.558Z,74.90
2023-03-16T21:58:50.852Z,75.19
2023-03-16T22:01:32.287Z,75.37
2023-03-16T22:04:06.904Z,75.48
2023-03-16T22:06:35.234Z,75.41
2023-03-16T22:09:04.218Z,75.48
2023-03-16T22:11:32.092Z,75.67
2023-03-16T22:14:00.395Z,75.43
2023-03-16T22:16:32.702Z,75.42
2023-03-16T22:19:01.238Z,75.67
2023-03-16T22:21:38.163Z,75.77
2023-03-16T22:24:12.619Z,75.62
2023-03-16T22:26:40.587Z,75.46
2023-03-16T22:29:25.349Z,75.44
2023-03-16T22:31:57.687Z,75.48
2023-03-16T22:34:33.253Z,75.60
2023-03-16T22:37:02.270Z,75.52
2023-03-16T22:39:37.716Z,75.18
2023-03-16T22:42:33.632Z,75.08
2023-03-16T22:45:02.265Z,75.35
2023-03-16T22:47:35.301Z,75.27
2023-03-16T22:50:03.604Z,75.04
2023-03-16T22:52:35.396Z,74.78
2023-03-16T22:55:05.690Z,74.79
2023-03-16T22:57:33.819Z,74.60
2023-03-16T23:00:11.385Z,74.75
2023-03-16T23:02:40.104Z,74.89
2023-03-16T23:05:29.526Z,74.83
2023-03-16T23:08:01.076Z,74.82
2023-03-16T23:10:29.735Z,74.68
2023-03-16T23:12:59.659Z,74.84
2023-03-16T23:15:30.506Z,75.01
2023-03-16T23:17:58.595Z,74.83
2023-03-16T23:20:30.214Z,74.81
2023-03-16T23:22:58.994Z,74.83
2023-03-16T23:25:26.940Z,74.77
2023-03-16T23:28:02.707Z,74.83
2023-03-16T23:30:31.103Z,74.87
2023-03-16T23:32:59.333Z,75.10
2023-03-16T23:35:30.731Z,75.01
2023-03-16T23:37:58.966Z,74.84
2023-03-16T23:40:29.162Z,74.85
2023-03-16T23:43:00.150Z,75.10
2023-03-16T23:45:38.353Z,75.10
2023-03-16T23:48:13.278Z,75.06
2023-03-16T23:50:42.041Z,75.08
2023-03-16T23:53:12.605Z,74.89
2023-03-16T23:55:41.860Z,74.74
2023-03-16T23:58:11.383Z,74.68
